Terminal Aerodrome Forecast
Issued by NWS

Home | Current Version | Previous Version | Graphics & Text | Print | Product List | Glossary On
Versions: 1 2 3 4 5 6 7 8 9 10 11 12 13 14 15 16 17 18 19 20
273
FTUS43 KBIS 240520
TAFDIK
TAF
KDIK 240520Z 2406/2506 03012G21KT P6SM RA OVC015
     FM241000 35008KT P6SM SCT025 BKN090
     FM242300 VRB06KT P6SM SKC=

USA.gov is the U.S. government's official web portal to all federal, state and local government web resources and services.